createdAt,value
2022-12-01T00:02:34.421Z,46.53
2022-12-01T00:06:36.797Z,41.22
2022-12-01T00:10:38.553Z,42.92
2022-12-01T00:14:40.227Z,40.60
2022-12-01T00:18:42.051Z,42.08
2022-12-01T00:22:48.402Z,45.28
2022-12-01T00:26:50.207Z,42.23
2022-12-01T00:30:51.825Z,43.30
2022-12-01T00:34:53.467Z,45.50
2022-12-01T00:38:56.032Z,41.70
2022-12-01T00:42:57.652Z,38.10
2022-12-01T00:46:59.283Z,42.75
2022-12-01T00:51:01.058Z,43.63
2022-12-01T00:55:02.743Z,39.47
2022-12-01T00:59:04.431Z,40.45
2022-12-01T01:03:10.094Z,42.10
2022-12-01T01:07:11.726Z,46.33
2022-12-01T01:11:13.369Z,43.47
2022-12-01T01:15:15.683Z,45.58
2022-12-01T01:19:17.797Z,49.47
2022-12-01T01:23:19.402Z,50.50
2022-12-01T01:27:21.012Z,47.72
2022-12-01T01:31:25.505Z,49.55
2022-12-01T01:35:27.104Z,50.70
2022-12-01T01:39:28.835Z,55.15
2022-12-01T01:43:52.831Z,56.08
2022-12-01T01:47:56.864Z,53.50
2022-12-01T01:51:58.797Z,61.28
2022-12-01T01:56:03.057Z,56.25
2022-12-01T02:00:10.555Z,60.58
2022-12-01T02:04:14.482Z,61.25
2022-12-01T02:08:16.326Z,65.47
2022-12-01T02:12:24.190Z,67.47
2022-12-01T02:16:47.840Z,61.83
2022-12-01T02:21:22.869Z,58.30
2022-12-01T02:25:37.754Z,64.12
2022-12-01T02:30:04.909Z,72.43
2022-12-01T02:34:39.043Z,75.28
2022-12-01T02:39:07.673Z,64.72
2022-12-01T02:43:33.245Z,70.57
2022-12-01T02:47:37.944Z,69.60
2022-12-01T02:51:44.505Z,75.80
2022-12-01T02:55:52.447Z,74.18
2022-12-01T02:59:55.783Z,71.32
2022-12-01T03:04:21.513Z,74.10
2022-12-01T03:08:49.187Z,74.12
2022-12-01T03:13:06.150Z,74.20
2022-12-01T03:17:11.295Z,67.05
2022-12-01T03:21:28.291Z,66.18
2022-12-01T03:25:31.421Z,69.05
2022-12-01T03:29:43.091Z,71.62
2022-12-01T03:33:52.444Z,76.47
2022-12-01T03:38:04.731Z,83.22
2022-12-01T03:42:18.055Z,71.20
2022-12-01T03:46:24.474Z,74.07
2022-12-01T03:50:37.699Z,69.32
2022-12-01T03:55:07.099Z,77.12
2022-12-01T03:59:10.128Z,67.50
2022-12-01T04:03:18.948Z,72.60
2022-12-01T04:07:21.788Z,67.30
2022-12-01T04:11:43.734Z,63.80
2022-12-01T04:15:45.379Z,63.35
2022-12-01T04:19:47.271Z,57.50
2022-12-01T04:24:01.230Z,54.33
2022-12-01T04:28:02.923Z,51.88
2022-12-01T04:32:04.912Z,53.38
2022-12-01T04:36:06.794Z,53.35
2022-12-01T04:40:09.365Z,51.03
2022-12-01T04:44:11.313Z,50.72
2022-12-01T04:48:13.001Z,55.38
2022-12-01T04:52:14.850Z,47.35
2022-12-01T04:56:16.527Z,47.42
2022-12-01T05:00:18.270Z,44.08
2022-12-01T05:04:19.964Z,46.25
2022-12-01T05:08:21.598Z,44.35
2022-12-01T05:12:23.527Z,43.53
2022-12-01T05:16:34.326Z,48.95
2022-12-01T05:20:54.913Z,46.88
2022-12-01T05:24:56.551Z,44.03
2022-12-01T05:28:58.227Z,41.28
2022-12-01T05:33:00.015Z,51.40
2022-12-01T05:37:01.619Z,51.35
2022-12-01T05:41:03.429Z,50.35
2022-12-01T05:45:05.612Z,51.08
2022-12-01T05:49:07.370Z,51.42
2022-12-01T05:53:11.596Z,53.72
2022-12-01T05:57:13.263Z,52.15
2022-12-01T06:01:15.588Z,59.42
2022-12-01T06:05:17.342Z,58.50
2022-12-01T06:09:19.141Z,50.92
2022-12-01T06:13:20.788Z,54.97
2022-12-01T06:17:22.482Z,56.40
2022-12-01T06:21:24.254Z,44.17
2022-12-01T06:25:26.007Z,49.67
2022-12-01T06:29:27.687Z,49.22
2022-12-01T06:33:29.381Z,45.12
2022-12-01T06:37:31.039Z,46.10
2022-12-01T06:41:32.632Z,48.95
2022-12-01T06:45:34.373Z,48.67
2022-12-01T06:49:36.136Z,52.38
2022-12-01T06:53:37.737Z,48.20
2022-12-01T06:57:39.445Z,45.35
2022-12-01T07:01:41.304Z,51.30
2022-12-01T07:05:42.950Z,49.60
2022-12-01T07:09:44.791Z,48.20
2022-12-01T07:13:46.584Z,52.30
2022-12-01T07:17:48.205Z,51.55
2022-12-01T07:21:50.129Z,52.65
2022-12-01T07:26:10.599Z,47.80
2022-12-01T07:30:12.512Z,47.28
2022-12-01T07:34:14.421Z,49.58
2022-12-01T07:38:21.800Z,50.25
2022-12-01T07:42:23.911Z,51.03
2022-12-01T07:46:27.089Z,54.28
2022-12-01T07:50:28.830Z,56.58
2022-12-01T07:54:30.455Z,54.35
2022-12-01T07:58:32.755Z,57.78
2022-12-01T08:02:34.608Z,53.97
2022-12-01T08:06:36.323Z,61.65
2022-12-01T08:10:37.947Z,56.85
2022-12-01T08:14:39.689Z,57.35
2022-12-01T08:18:42.443Z,57.38
2022-12-01T08:22:44.247Z,52.75
2022-12-01T08:26:45.884Z,58.15
2022-12-01T08:30:47.684Z,55.83
2022-12-01T08:34:53.382Z,52.67
2022-12-01T08:38:56.289Z,57.78
2022-12-01T08:42:58.013Z,55.05
2022-12-01T08:46:59.813Z,71.20
2022-12-01T08:51:07.583Z,64.32
2022-12-01T08:55:09.448Z,63.38
2022-12-01T08:59:11.593Z,61.72
2022-12-01T09:03:13.244Z,60.25
2022-12-01T09:07:19.031Z,59.20
2022-12-01T09:11:23.127Z,67.53
2022-12-01T09:15:24.795Z,59.60
2022-12-01T09:19:28.463Z,67.28
2022-12-01T09:23:30.058Z,62.03
2022-12-01T09:27:31.701Z,58.30
2022-12-01T09:31:33.592Z,58.30
2022-12-01T09:35:35.715Z,57.78
2022-12-01T09:39:37.485Z,54.72
2022-12-01T09:43:50.304Z,57.88
2022-12-01T09:47:56.414Z,50.88
2022-12-01T09:52:00.134Z,58.53
2022-12-01T09:56:07.327Z,51.22
2022-12-01T10:00:18.014Z,47.00
2022-12-01T10:04:30.790Z,53.00
2022-12-01T10:08:36.862Z,56.92
2022-12-01T10:12:41.295Z,51.85
2022-12-01T10:16:59.134Z,54.35
2022-12-01T10:21:15.108Z,49.67
2022-12-01T10:25:26.438Z,48.80
2022-12-01T10:29:47.332Z,50.42
2022-12-01T10:34:24.389Z,50.95
2022-12-01T10:38:33.942Z,45.28
2022-12-01T10:42:41.002Z,48.90
2022-12-01T10:46:56.285Z,48.55
2022-12-01T10:51:15.380Z,42.90
2022-12-01T10:55:22.818Z,45.12
2022-12-01T10:59:32.921Z,43.45
2022-12-01T11:03:36.361Z,50.97
2022-12-01T11:07:49.137Z,45.22
2022-12-01T11:11:57.004Z,47.17
2022-12-01T11:16:04.797Z,47.22
2022-12-01T11:20:32.424Z,45.80
2022-12-01T11:24:55.451Z,38.53
2022-12-01T11:29:01.020Z,47.38
2022-12-01T11:33:04.059Z,41.75
2022-12-01T11:37:17.055Z,43.35
2022-12-01T11:41:32.378Z,44.92
2022-12-01T11:45:39.394Z,47.95
2022-12-01T11:53:49.087Z,41.95
2022-12-01T11:57:53.507Z,42.08
2022-12-01T12:02:38.979Z,43.08
2022-12-01T12:07:02.296Z,45.50
2022-12-01T12:11:30.379Z,46.42
2022-12-01T12:16:11.302Z,46.25
2022-12-01T12:20:34.079Z,44.05
2022-12-01T12:24:41.581Z,42.95
2022-12-01T12:29:01.596Z,42.33
2022-12-01T12:33:23.850Z,48.20
2022-12-01T12:37:31.234Z,48.97
2022-12-01T12:41:50.160Z,53.42
2022-12-01T12:45:58.061Z,57.95
2022-12-01T12:50:17.389Z,55.58
2022-12-01T12:54:27.600Z,57.03
2022-12-01T12:58:39.340Z,61.25
2022-12-01T13:02:42.329Z,57.45
2022-12-01T13:06:55.813Z,61.50
2022-12-01T13:11:09.910Z,56.60
2022-12-01T13:15:19.890Z,58.30
2022-12-01T13:19:35.261Z,64.97
2022-12-01T13:23:38.819Z,57.80
2022-12-01T13:27:43.038Z,62.30
2022-12-01T13:31:48.033Z,60.95
2022-12-01T13:36:15.421Z,66.43
2022-12-01T13:40:27.253Z,63.22
2022-12-01T13:44:40.579Z,63.17
2022-12-01T13:48:42.373Z,64.18
2022-12-01T13:52:50.644Z,67.90
2022-12-01T13:57:04.374Z,64.95
2022-12-01T14:01:42.425Z,61.67
2022-12-01T14:05:53.195Z,66.32
2022-12-01T14:10:06.150Z,61.22
2022-12-01T14:14:24.251Z,68.43
2022-12-01T14:18:35.040Z,65.32
2022-12-01T14:22:43.937Z,66.53
2022-12-01T14:26:48.990Z,72.50
2022-12-01T14:30:51.703Z,65.40
2022-12-01T14:34:55.322Z,67.45
2022-12-01T14:39:03.221Z,74.80
2022-12-01T14:43:23.690Z,73.32
2022-12-01T14:47:40.497Z,67.90
2022-12-01T14:51:45.642Z,71.60
2022-12-01T14:55:59.841Z,72.18
2022-12-01T15:00:12.750Z,74.32
2022-12-01T15:04:14.661Z,72.45
2022-12-01T15:12:43.349Z,71.77
2022-12-01T15:16:45.145Z,72.75
2022-12-01T15:20:50.626Z,77.35
2022-12-01T15:24:52.649Z,75.22
2022-12-01T15:29:25.473Z,77.32
2022-12-01T15:33:37.023Z,77.25
2022-12-01T15:37:43.728Z,83.05
2022-12-01T15:41:48.024Z,73.67
2022-12-01T15:45:58.303Z,77.35
2022-12-01T15:49:59.959Z,71.30
2022-12-01T15:54:02.568Z,78.78
2022-12-01T15:58:09.442Z,77.25
2022-12-01T16:02:20.565Z,76.05
2022-12-01T16:06:30.218Z,81.93
2022-12-01T16:10:35.694Z,78.07
2022-12-01T16:14:48.439Z,77.22
2022-12-01T16:19:03.643Z,72.78
2022-12-01T16:23:20.459Z,70.07
2022-12-01T16:27:28.024Z,75.68
2022-12-01T16:31:29.883Z,75.15
2022-12-01T16:35:33.923Z,71.53
2022-12-01T16:39:35.589Z,71.55
2022-12-01T16:43:37.286Z,70.22
2022-12-01T16:47:39.141Z,70.37
2022-12-01T16:51:55.538Z,67.25
2022-12-01T16:56:00.379Z,68.05
2022-12-01T17:00:02.288Z,68.57
2022-12-01T17:04:07.617Z,63.78
2022-12-01T17:08:09.651Z,63.40
2022-12-01T17:12:11.372Z,60.80
2022-12-01T17:16:18.205Z,62.62
2022-12-01T17:20:20.552Z,65.18
2022-12-01T17:24:22.387Z,65.35
2022-12-01T17:28:24.001Z,64.57
2022-12-01T17:32:27.306Z,65.70
2022-12-01T17:36:28.933Z,58.70
2022-12-01T17:40:30.916Z,60.25
2022-12-01T17:44:32.632Z,64.47
2022-12-01T17:48:42.215Z,65.28
2022-12-01T17:52:43.862Z,66.50
2022-12-01T17:56:45.606Z,69.82
2022-12-01T18:00:49.851Z,65.78
2022-12-01T18:04:51.907Z,69.55
2022-12-01T18:08:54.249Z,67.90
2022-12-01T18:12:55.925Z,74.20
2022-12-01T18:16:57.648Z,73.85
2022-12-01T18:20:59.296Z,78.53
2022-12-01T18:25:00.902Z,69.28
2022-12-01T18:29:06.138Z,67.85
2022-12-01T18:33:12.116Z,71.35
2022-12-01T18:37:13.833Z,66.05
2022-12-01T18:41:16.218Z,60.55
2022-12-01T18:45:21.172Z,65.82
2022-12-01T18:49:23.242Z,63.38
2022-12-01T18:53:24.858Z,63.70
2022-12-01T18:57:26.479Z,66.03
2022-12-01T19:01:32.463Z,65.43
2022-12-01T19:05:38.596Z,62.00
2022-12-01T19:09:40.363Z,59.83
2022-12-01T19:13:42.199Z,63.25
2022-12-01T19:17:43.870Z,67.62
2022-12-01T19:21:45.836Z,69.75
2022-12-01T19:25:47.650Z,73.00
2022-12-01T19:29:50.047Z,72.95
2022-12-01T19:33:53.186Z,76.53
2022-12-01T19:37:54.834Z,67.85
2022-12-01T19:41:57.259Z,68.12
2022-12-01T19:46:06.587Z,68.97
2022-12-01T19:50:09.164Z,66.75
2022-12-01T19:54:14.697Z,67.35
2022-12-01T19:58:17.203Z,68.87
2022-12-01T20:02:22.974Z,71.87
2022-12-01T20:06:29.672Z,67.15
2022-12-01T20:10:31.345Z,62.90
2022-12-01T20:14:32.988Z,57.10
2022-12-01T20:18:35.822Z,55.72
2022-12-01T20:22:37.841Z,54.13
2022-12-01T20:26:48.589Z,50.67
2022-12-01T20:30:50.231Z,49.10
2022-12-01T20:34:52.102Z,45.58
2022-12-01T20:38:54.507Z,42.90
2022-12-01T20:42:56.186Z,45.08
2022-12-01T20:46:58.010Z,37.72
2022-12-01T20:51:01.124Z,40.63
2022-12-01T20:55:02.758Z,37.95
2022-12-01T20:59:04.730Z,38.33
2022-12-01T21:03:06.738Z,35.00
2022-12-01T21:07:08.397Z,34.25
2022-12-01T21:11:44.693Z,36.03
2022-12-01T21:15:57.335Z,33.90
2022-12-01T21:20:21.614Z,35.65
2022-12-01T21:24:30.073Z,40.38
2022-12-01T21:28:36.958Z,33.15
2022-12-01T21:32:44.061Z,36.58
2022-12-01T21:36:48.223Z,38.65
2022-12-01T21:40:49.900Z,44.10
2022-12-01T21:44:51.745Z,40.58
2022-12-01T21:48:55.050Z,35.92
2022-12-01T21:52:58.030Z,37.25
2022-12-01T21:56:59.953Z,39.28
2022-12-01T22:01:10.036Z,42.83
2022-12-01T22:05:37.177Z,42.72
2022-12-01T22:09:38.907Z,45.15
2022-12-01T22:13:46.719Z,45.45
2022-12-01T22:17:48.439Z,50.85
2022-12-01T22:21:54.623Z,50.65
2022-12-01T22:25:56.249Z,50.07
2022-12-01T22:30:06.509Z,54.08
2022-12-01T22:34:11.713Z,53.83
2022-12-01T22:38:37.435Z,51.63
2022-12-01T22:42:39.075Z,52.22
2022-12-01T22:46:41.205Z,53.40
2022-12-01T22:50:46.246Z,51.33
2022-12-01T22:54:52.150Z,54.33
2022-12-01T22:58:54.588Z,56.10
2022-12-01T23:02:56.591Z,57.35
2022-12-01T23:07:22.799Z,51.95
2022-12-01T23:11:24.537Z,51.28
2022-12-01T23:15:38.805Z,53.42
2022-12-01T23:19:40.610Z,54.70
2022-12-01T23:23:42.214Z,56.15
2022-12-01T23:27:45.602Z,56.30
2022-12-01T23:31:48.463Z,55.05
2022-12-01T23:35:58.351Z,59.33
2022-12-01T23:40:01.262Z,55.05
2022-12-01T23:44:26.949Z,58.22
2022-12-01T23:48:34.239Z,53.03
2022-12-01T23:52:36.593Z,56.95
2022-12-01T23:56:38.951Z,55.95
